Time;durP1;ratioP1;P1;durP2;ratioP2;P2;SDS_P1;SDS_P2;PMS_P1;PMS_P2;Temp;Humidity;BMP_temperature;BMP_pressure;BME280_temperature;BME280_humidity;BME280_pressure;Samples;Min_cycle;Max_cycle;Signal;HPM_P1;HPM_P2
2022/08/19 00:00:08;;;;;;;4.07;1.85;;;23.20;65.40;;;;;;4980513;28;20078;-59
2022/08/19 00:02:33;;;;;;;2.67;1.70;;;23.20;65.50;;;;;;4975109;28;20026;-58
2022/08/19 00:04:59;;;;;;;3.72;1.70;;;23.20;65.50;;;;;;4977952;28;20027;-58
2022/08/19 00:07:25;;;;;;;5.95;1.85;;;23.20;65.40;;;;;;4975494;28;20030;-58
2022/08/19 00:09:50;;;;;;;3.80;1.63;;;23.20;65.50;;;;;;4980040;28;20031;-58
2022/08/19 00:12:16;;;;;;;3.88;1.70;;;23.20;65.40;;;;;;4977856;28;20034;-59
2022/08/19 00:14:42;;;;;;;3.17;1.50;;;23.20;65.40;;;;;;4976444;28;20073;-59
2022/08/19 00:17:08;;;;;;;4.22;1.60;;;23.20;65.40;;;;;;4975592;28;20554;-59
2022/08/19 00:19:34;;;;;;;4.20;1.70;;;23.10;65.40;;;;;;4975024;28;20022;-58
2022/08/19 00:22:00;;;;;;;3.80;1.90;;;23.20;65.40;;;;;;4977318;28;20154;-58
2022/08/19 00:24:27;;;;;;;4.57;1.77;;;23.20;65.40;;;;;;4977221;28;20038;-59
2022/08/19 00:26:52;;;;;;;4.05;1.65;;;23.10;65.40;;;;;;4976414;28;20545;-58
2022/08/19 00:29:19;;;;;;;5.40;1.83;;;23.20;65.40;;;;;;4975275;28;20034;-59
2022/08/19 00:31:45;;;;;;;3.70;1.70;;;23.10;65.20;;;;;;4975160;28;20026;-58
2022/08/19 00:34:11;;;;;;;3.75;1.70;;;23.10;65.20;;;;;;4973061;28;20026;-59
2022/08/19 00:36:37;;;;;;;4.65;1.83;;;23.10;65.20;;;;;;4979465;28;20121;-58
2022/08/19 00:39:03;;;;;;;3.50;1.55;;;23.10;65.10;;;;;;4973133;28;20145;-59
2022/08/19 00:41:28;;;;;;;3.78;1.55;;;23.10;65.20;;;;;;4975012;28;20038;-59
2022/08/19 00:44:27;;;;;;;2.90;1.55;;;23.10;65.10;;;;;;4977948;28;20018;-59
2022/08/19 00:46:54;;;;;;;3.63;1.50;;;23.10;65.20;;;;;;4975549;28;20065;-58
2022/08/19 00:49:32;;;;;;;3.92;1.60;;;23.10;65.10;;;;;;4974883;28;20140;-59
2022/08/19 00:52:04;;;;;;;2.92;1.52;;;23.10;65.10;;;;;;4940545;28;20039;-59
2022/08/19 00:54:31;;;;;;;4.43;1.80;;;23.10;65.20;;;;;;4974911;28;20105;-59
2022/08/19 00:56:57;;;;;;;3.42;1.50;;;23.10;65.10;;;;;;4953759;28;20051;-58
2022/08/19 00:59:23;;;;;;;3.78;1.65;;;23.10;65.10;;;;;;4953796;28;20027;-59
2022/08/19 01:01:48;;;;;;;3.08;1.60;;;23.10;65.20;;;;;;4954341;28;20588;-59
2022/08/19 01:04:14;;;;;;;3.30;1.60;;;23.10;65.10;;;;;;4939463;28;20673;-58
2022/08/19 01:06:42;;;;;;;3.38;1.70;;;23.10;65.10;;;;;;4970806;28;20447;-58
2022/08/19 01:09:08;;;;;;;3.00;1.48;;;23.10;65.10;;;;;;4956265;28;20041;-58
2022/08/19 01:11:36;;;;;;;3.00;1.63;;;23.10;65.10;;;;;;4971291;28;20027;-58
2022/08/19 01:14:02;;;;;;;3.65;1.52;;;23.10;65.00;;;;;;4958829;28;20030;-58
2022/08/19 01:16:27;;;;;;;2.97;1.60;;;23.10;65.00;;;;;;4960203;28;20073;-58
2022/08/19 01:18:53;;;;;;;2.70;1.35;;;23.10;65.00;;;;;;4957510;28;20098;-58
2022/08/19 01:21:24;;;;;;;5.35;1.70;;;23.10;65.00;;;;;;4969029;28;20034;-58
2022/08/19 01:23:50;;;;;;;3.15;1.40;;;23.10;65.00;;;;;;4974162;28;20494;-58
2022/08/19 01:26:18;;;;;;;2.85;1.60;;;23.10;65.00;;;;;;4973222;28;20023;-58
2022/08/19 01:28:45;;;;;;;3.60;1.70;;;23.10;65.00;;;;;;4974319;28;20035;-58
2022/08/19 01:31:14;;;;;;;3.88;1.80;;;23.10;65.00;;;;;;4977052;28;20022;-58
2022/08/19 01:33:39;;;;;;;4.55;1.50;;;23.00;64.90;;;;;;4975150;28;20089;-58
2022/08/19 01:36:12;;;;;;;3.58;1.70;;;23.10;65.00;;;;;;4975459;28;20492;-58
2022/08/19 01:38:39;;;;;;;3.60;1.70;;;23.10;65.00;;;;;;4977495;28;20027;-57
2022/08/19 01:41:05;;;;;;;4.53;1.60;;;23.10;65.00;;;;;;4975959;28;20033;-58
2022/08/19 01:43:32;;;;;;;4.45;1.83;;;23.00;64.90;;;;;;4975998;28;20054;-58
2022/08/19 01:45:57;;;;;;;4.32;1.70;;;23.10;65.10;;;;;;4970090;28;20118;-58
2022/08/19 01:48:23;;;;;;;3.78;1.88;;;23.10;65.10;;;;;;4970162;28;20440;-58
2022/08/19 01:50:49;;;;;;;2.83;1.67;;;23.00;65.00;;;;;;4975687;28;20025;-58
2022/08/19 01:53:15;;;;;;;5.35;1.70;;;23.10;65.10;;;;;;4973846;28;20056;-58
2022/08/19 01:55:41;;;;;;;4.93;1.70;;;23.00;65.00;;;;;;4973628;28;20038;-58
2022/08/19 01:58:15;;;;;;;4.35;1.45;;;23.00;65.00;;;;;;4974104;28;20042;-58
2022/08/19 02:00:42;;;;;;;3.85;1.80;;;23.00;65.10;;;;;;4974917;28;20036;-58
2022/08/19 02:03:09;;;;;;;5.78;1.90;;;23.00;65.10;;;;;;4972658;28;20470;-58
2022/08/19 02:05:34;;;;;;;3.97;1.80;;;23.10;65.20;;;;;;4970084;28;20077;-58
2022/08/19 02:08:00;;;;;;;5.70;1.70;;;23.00;65.20;;;;;;4973742;28;20450;-58
2022/08/19 02:10:26;;;;;;;5.25;2.00;;;23.00;65.20;;;;;;4973986;28;20022;-58
2022/08/19 02:12:51;;;;;;;5.38;1.80;;;23.00;65.20;;;;;;4974594;28;20041;-58
2022/08/19 02:15:19;;;;;;;6.93;1.95;;;23.00;65.10;;;;;;4974436;28;20027;-58
2022/08/19 02:17:44;;;;;;;6.40;2.17;;;23.00;65.20;;;;;;4975330;28;20035;-58
2022/08/19 02:20:10;;;;;;;5.72;1.90;;;23.00;65.20;;;;;;4974999;28;20028;-58
2022/08/19 02:22:36;;;;;;;5.93;2.20;;;23.00;65.20;;;;;;4974473;28;20050;-58
2022/08/19 02:25:03;;;;;;;5.13;1.95;;;23.00;65.20;;;;;;4974948;28;20023;-57
2022/08/19 02:27:29;;;;;;;4.90;1.75;;;23.00;65.20;;;;;;4974077;28;20027;-58
2022/08/19 02:29:55;;;;;;;4.05;1.65;;;23.00;65.10;;;;;;4975091;28;20027;-58
2022/08/19 02:32:21;;;;;;;5.35;2.00;;;23.00;65.20;;;;;;4974313;28;20073;-58
2022/08/19 02:34:47;;;;;;;6.78;1.90;;;23.00;65.20;;;;;;4973336;28;20035;-58
2022/08/19 02:39:57;;;;;;;6.25;1.90;;;23.00;65.20;;;;;;4977561;28;20077;-58
2022/08/19 02:42:23;;;;;;;5.43;1.90;;;23.00;65.20;;;;;;4978046;28;20043;-58
2022/08/19 02:44:48;;;;;;;5.97;1.70;;;23.00;65.20;;;;;;4975861;28;20027;-58
2022/08/19 02:47:14;;;;;;;4.93;1.73;;;23.00;65.10;;;;;;4978019;28;20039;-58
2022/08/19 02:49:40;;;;;;;3.78;1.80;;;23.00;65.10;;;;;;4978214;28;20025;-57
2022/08/19 02:52:06;;;;;;;5.55;1.92;;;23.00;65.10;;;;;;4976029;28;20035;-58
2022/08/19 02:54:32;;;;;;;5.05;1.75;;;23.00;65.20;;;;;;4975216;28;20457;-58
2022/08/19 02:56:58;;;;;;;4.93;1.80;;;23.00;65.20;;;;;;4978648;28;20585;-58
2022/08/19 02:59:25;;;;;;;5.18;1.90;;;23.00;65.10;;;;;;4977481;28;20040;-58
2022/08/19 03:01:51;;;;;;;5.07;1.88;;;23.00;65.10;;;;;;4976497;28;20039;-58
2022/08/19 03:04:16;;;;;;;5.85;2.05;;;23.00;65.10;;;;;;4977111;28;20027;-58
2022/08/19 03:06:43;;;;;;;4.15;1.65;;;23.00;65.10;;;;;;4978018;28;20030;-58
2022/08/19 03:09:09;;;;;;;4.60;1.70;;;23.00;65.10;;;;;;4978173;28;20030;-58
2022/08/19 03:11:34;;;;;;;4.22;1.60;;;23.00;65.10;;;;;;4975846;28;20060;-58
2022/08/19 03:14:01;;;;;;;4.20;1.58;;;23.00;65.10;;;;;;4975809;28;20442;-58
2022/08/19 03:16:30;;;;;;;5.50;1.98;;;23.00;65.20;;;;;;4959285;28;20074;-58
2022/08/19 03:18:56;;;;;;;4.60;1.60;;;23.00;65.10;;;;;;4974016;28;20396;-58
2022/08/19 03:21:24;;;;;;;4.25;1.65;;;22.90;65.00;;;;;;4977986;28;20046;-58
2022/08/19 03:23:50;;;;;;;4.38;1.80;;;22.90;65.10;;;;;;4976789;28;20570;-58
2022/08/19 03:26:16;;;;;;;3.10;1.50;;;22.90;65.00;;;;;;4979142;28;20053;-58
2022/08/19 03:28:43;;;;;;;4.70;1.92;;;22.90;65.10;;;;;;4974998;28;20097;-58
2022/08/19 03:31:11;;;;;;;2.70;1.55;;;22.90;65.00;;;;;;4975321;28;20033;-58
2022/08/19 03:33:38;;;;;;;5.38;1.90;;;23.00;65.10;;;;;;4977437;28;20097;-58
2022/08/19 03:36:08;;;;;;;5.55;1.70;;;22.90;65.10;;;;;;4975173;28;20091;-58
2022/08/19 03:38:36;;;;;;;5.20;2.00;;;23.00;65.10;;;;;;4972084;28;20026;-58
2022/08/19 03:41:21;;;;;;;4.50;1.80;;;23.00;65.10;;;;;;4966742;28;20050;-58
2022/08/19 03:43:48;;;;;;;5.07;1.83;;;23.00;65.10;;;;;;4964709;28;20027;-58
2022/08/19 03:46:15;;;;;;;4.43;1.75;;;22.90;65.00;;;;;;4978997;28;20058;-58
2022/08/19 03:48:42;;;;;;;6.10;1.73;;;22.90;65.00;;;;;;4977502;28;20459;-58
2022/08/19 03:51:08;;;;;;;4.25;1.77;;;22.90;65.00;;;;;;4972730;28;20333;-58
2022/08/19 03:53:34;;;;;;;4.53;1.95;;;22.90;65.10;;;;;;4973680;28;20590;-58
2022/08/19 03:56:00;;;;;;;4.90;1.90;;;22.90;65.30;;;;;;4975690;28;20450;-58
2022/08/19 03:58:28;;;;;;;4.68;1.70;;;23.00;65.30;;;;;;4974367;28;20030;-58
2022/08/19 04:00:55;;;;;;;6.28;1.90;;;22.90;65.30;;;;;;4976163;28;20090;-58
2022/08/19 04:03:21;;;;;;;3.78;1.60;;;22.90;65.30;;;;;;4972948;28;20034;-58
2022/08/19 04:05:47;;;;;;;4.57;1.70;;;23.00;65.40;;;;;;4974966;28;20026;-58
2022/08/19 04:08:13;;;;;;;4.75;2.10;;;23.00;65.30;;;;;;4971951;28;20026;-58
2022/08/19 04:10:40;;;;;;;3.80;1.50;;;23.00;65.40;;;;;;4972119;28;20105;-58
2022/08/19 04:13:06;;;;;;;4.85;1.65;;;22.90;65.30;;;;;;4973457;28;20098;-58
2022/08/19 04:15:38;;;;;;;4.70;1.73;;;22.90;65.30;;;;;;4972933;28;20028;-58
2022/08/19 04:18:07;;;;;;;4.03;1.50;;;22.90;65.40;;;;;;4973278;28;20034;-58
2022/08/19 04:20:38;;;;;;;4.25;1.55;;;22.90;65.30;;;;;;4973195;28;20357;-58
2022/08/19 04:23:04;;;;;;;3.85;1.67;;;22.90;65.30;;;;;;4974218;28;20458;-58
2022/08/19 04:25:35;;;;;;;5.18;1.85;;;22.90;65.30;;;;;;4974529;28;20114;-58
2022/08/19 04:28:01;;;;;;;5.10;1.65;;;22.90;65.30;;;;;;4970833;28;20059;-58
2022/08/19 04:30:27;;;;;;;3.65;1.55;;;22.90;66.40;;;;;;4970623;28;20034;-58
2022/08/19 04:32:53;;;;;;;5.03;1.67;;;22.90;65.30;;;;;;4975107;28;20029;-58
2022/08/19 04:35:18;;;;;;;4.22;1.70;;;22.90;65.30;;;;;;4973611;28;20027;-58
2022/08/19 04:37:44;;;;;;;4.35;1.45;;;22.90;65.40;;;;;;4978125;28;20621;-58
2022/08/19 04:42:54;;;;;;;5.78;1.65;;;22.90;65.30;;;;;;4977405;28;20033;-58
2022/08/19 04:45:20;;;;;;;5.07;1.80;;;22.90;65.30;;;;;;4975156;28;20039;-58
2022/08/19 04:47:45;;;;;;;4.57;1.67;;;22.90;65.30;;;;;;4976022;28;20042;-58
2022/08/19 04:50:11;;;;;;;5.20;1.85;;;22.90;65.40;;;;;;4973267;28;20027;-58
2022/08/19 04:52:42;;;;;;;4.50;1.65;;;22.90;65.40;;;;;;4974076;28;20065;-58
2022/08/19 04:55:11;;;;;;;4.57;1.70;;;22.90;65.40;;;;;;4976250;28;20046;-58
2022/08/19 04:57:39;;;;;;;3.78;1.42;;;22.90;65.40;;;;;;4974903;28;20126;-58
2022/08/19 05:00:06;;;;;;;5.10;1.75;;;22.90;66.50;;;;;;4975943;28;20040;-58
2022/08/19 05:02:32;;;;;;;4.07;1.60;;;22.90;65.40;;;;;;4974133;28;20077;-58
2022/08/19 05:05:00;;;;;;;5.25;1.60;;;22.90;65.50;;;;;;4977017;28;20510;-58
2022/08/19 05:07:26;;;;;;;4.00;1.80;;;22.90;65.40;;;;;;4977285;28;20034;-58
2022/08/19 05:09:52;;;;;;;4.18;1.70;;;22.90;65.40;;;;;;4976834;28;20030;-58
2022/08/19 05:12:18;;;;;;;3.33;1.40;;;22.90;65.40;;;;;;4976880;28;20046;-58
2022/08/19 05:14:45;;;;;;;4.13;1.63;;;22.90;65.50;;;;;;4976470;28;20502;-58
2022/08/19 05:17:10;;;;;;;3.33;1.58;;;22.80;65.40;;;;;;4977824;28;20097;-58
2022/08/19 05:22:32;;;;;;;4.60;1.60;;;22.90;65.40;;;;;;4975673;28;20053;-57
2022/08/19 05:24:58;;;;;;;3.97;1.80;;;22.80;65.40;;;;;;4976678;28;20065;-58
2022/08/19 05:27:24;;;;;;;3.42;1.58;;;22.90;65.40;;;;;;4979577;28;20031;-58
2022/08/19 05:29:50;;;;;;;4.18;1.70;;;22.80;65.30;;;;;;4976271;28;20166;-58
2022/08/19 05:32:15;;;;;;;5.38;2.20;;;22.80;65.40;;;;;;4973427;28;20108;-58
2022/08/19 05:34:41;;;;;;;4.00;1.60;;;22.80;65.50;;;;;;4975132;28;20495;-58
2022/08/19 05:37:08;;;;;;;3.78;1.60;;;22.90;65.40;;;;;;4972930;28;20053;-58
2022/08/19 05:39:35;;;;;;;4.70;1.70;;;22.80;65.40;;;;;;4973681;28;20098;-58
2022/08/19 05:42:08;;;;;;;4.60;1.73;;;22.80;65.40;;;;;;4973439;28;20638;-58
2022/08/19 05:44:36;;;;;;;4.38;1.65;;;22.80;65.60;;;;;;4971680;28;20174;-58
2022/08/19 05:47:04;;;;;;;4.32;1.70;;;22.80;65.40;;;;;;4973421;28;20159;-57
2022/08/19 05:49:30;;;;;;;3.03;1.40;;;22.80;65.40;;;;;;4973514;28;20023;-58
2022/08/19 05:51:56;;;;;;;3.45;1.60;;;22.80;65.40;;;;;;4973260;28;20030;-58
2022/08/19 05:54:25;;;;;;;4.60;1.60;;;22.80;65.40;;;;;;4974347;28;20031;-58
2022/08/19 05:56:51;;;;;;;3.88;1.50;;;22.80;65.40;;;;;;4975163;28;20037;-58
2022/08/19 05:59:17;;;;;;;4.43;1.60;;;22.80;65.40;;;;;;4973687;28;20069;-58
2022/08/19 06:01:44;;;;;;;4.43;1.63;;;22.80;65.40;;;;;;4974009;28;20031;-58
2022/08/19 06:04:10;;;;;;;3.40;1.50;;;22.80;65.40;;;;;;4975212;28;20050;-58
2022/08/19 06:06:36;;;;;;;2.92;1.60;;;22.80;65.30;;;;;;4982458;28;20081;-58
2022/08/19 06:09:05;;;;;;;3.03;1.60;;;22.80;65.30;;;;;;4975592;28;20092;-58
2022/08/19 06:11:33;;;;;;;3.53;1.60;;;22.80;65.40;;;;;;4977019;28;20049;-58
2022/08/19 06:14:01;;;;;;;3.75;1.50;;;22.80;65.40;;;;;;4969622;28;20506;-58
2022/08/19 06:16:27;;;;;;;3.55;1.58;;;22.80;65.40;;;;;;4975911;28;20104;-58
2022/08/19 06:18:53;;;;;;;3.28;1.33;;;22.80;65.40;;;;;;4973520;28;20034;-58
2022/08/19 06:21:23;;;;;;;2.60;1.40;;;22.80;65.40;;;;;;4975090;28;20045;-58
2022/08/19 06:23:50;;;;;;;3.00;1.60;;;22.80;65.20;;;;;;4974732;28;20041;-58
2022/08/19 06:26:16;;;;;;;2.80;1.30;;;22.80;65.30;;;;;;4976402;28;20407;-58
2022/08/19 06:28:42;;;;;;;2.70;1.45;;;22.80;65.30;;;;;;4974309;28;20031;-58
2022/08/19 06:31:08;;;;;;;4.32;1.70;;;22.80;65.40;;;;;;4976280;28;20437;-58
2022/08/19 06:33:34;;;;;;;4.32;1.63;;;22.80;65.40;;;;;;4974882;28;20439;-58
2022/08/19 06:36:00;;;;;;;3.03;1.40;;;22.80;65.30;;;;;;4974820;28;20046;-58
2022/08/19 06:38:26;;;;;;;3.67;1.40;;;22.80;65.50;;;;;;4974069;28;20030;-58
2022/08/19 06:40:59;;;;;;;5.95;1.70;;;22.80;65.40;;;;;;4973222;28;20491;-58
2022/08/19 06:43:25;;;;;;;3.65;1.55;;;22.80;65.40;;;;;;4972199;28;20035;-58
2022/08/19 06:45:51;;;;;;;3.55;1.70;;;22.80;65.30;;;;;;4973414;28;20511;-58
2022/08/19 06:48:18;;;;;;;3.33;1.45;;;22.80;65.30;;;;;;4974228;28;20035;-58
2022/08/19 06:50:43;;;;;;;4.47;1.75;;;22.80;65.40;;;;;;4976212;28;20105;-58
2022/08/19 06:53:09;;;;;;;5.05;1.70;;;22.70;65.30;;;;;;4975784;28;20110;-58
2022/08/19 06:55:35;;;;;;;4.03;1.60;;;22.70;65.30;;;;;;4972459;28;20062;-58
2022/08/19 06:58:04;;;;;;;4.03;1.60;;;22.70;65.30;;;;;;4975665;28;20100;-58
2022/08/19 07:00:29;;;;;;;4.50;1.67;;;22.70;65.30;;;;;;4974931;28;20387;-58
2022/08/19 07:02:55;;;;;;;4.47;1.70;;;22.70;65.40;;;;;;4971104;28;20036;-58
2022/08/19 07:05:21;;;;;;;3.33;1.50;;;22.70;65.40;;;;;;4970745;28;20495;-58
2022/08/19 07:07:46;;;;;;;3.85;1.60;;;22.70;65.30;;;;;;4976443;28;20089;-58
2022/08/19 07:10:12;;;;;;;3.60;1.70;;;22.70;65.30;;;;;;4972410;28;20030;-58
2022/08/19 07:12:38;;;;;;;5.18;1.65;;;22.70;65.40;;;;;;4973569;28;20043;-58
2022/08/19 07:15:04;;;;;;;3.10;1.40;;;22.70;65.30;;;;;;4973277;28;20086;-58
2022/08/19 07:17:30;;;;;;;3.00;1.45;;;22.70;65.40;;;;;;4974132;28;20053;-58
2022/08/19 07:19:56;;;;;;;3.78;1.52;;;22.70;65.40;;;;;;4973778;28;20031;-58
2022/08/19 07:22:24;;;;;;;4.25;1.70;;;22.70;65.40;;;;;;4973666;28;20047;-57
2022/08/19 07:24:51;;;;;;;4.60;1.50;;;22.70;65.40;;;;;;4974904;28;20122;-58
2022/08/19 07:27:17;;;;;;;3.80;1.70;;;22.70;65.50;;;;;;4977462;28;20018;-58
2022/08/19 07:29:42;;;;;;;4.65;1.63;;;22.70;65.40;;;;;;4977887;28;20045;-58
2022/08/19 07:32:09;;;;;;;2.90;1.50;;;22.70;65.40;;;;;;4973773;28;20034;-58
2022/08/19 07:34:36;;;;;;;3.17;1.30;;;22.70;65.40;;;;;;4970206;28;20027;-58
2022/08/19 07:37:03;;;;;;;2.72;1.40;;;22.70;65.40;;;;;;4970284;28;20075;-58
2022/08/19 07:39:31;;;;;;;3.42;1.40;;;22.70;65.40;;;;;;4975375;28;20500;-58
2022/08/19 07:41:57;;;;;;;5.13;1.67;;;22.70;65.30;;;;;;4978778;28;20023;-58
2022/08/19 07:44:23;;;;;;;4.55;1.50;;;22.70;66.40;;;;;;4971181;28;20046;-58
2022/08/19 07:46:51;;;;;;;3.70;1.40;;;22.70;65.30;;;;;;4977395;28;20058;-58
2022/08/19 07:49:19;;;;;;;3.28;1.50;;;22.70;65.30;;;;;;4974313;28;20026;-58
2022/08/19 07:51:46;;;;;;;2.35;1.20;;;22.70;65.50;;;;;;4973898;28;20059;-58
2022/08/19 07:54:12;;;;;;;3.33;1.42;;;22.70;65.40;;;;;;4974880;28;20677;-58
2022/08/19 07:56:37;;;;;;;3.65;1.40;;;22.70;65.40;;;;;;4971204;28;20035;-58
2022/08/19 07:59:03;;;;;;;3.72;1.48;;;22.70;65.40;;;;;;4978859;28;20400;-58
2022/08/19 08:01:29;;;;;;;2.92;1.45;;;22.70;65.40;;;;;;4974002;28;20027;-58
2022/08/19 08:09:34;;;;;;;2.88;1.48;;;22.70;65.20;;;;;;4962387;28;20030;-58
2022/08/19 08:12:07;;;;;;;3.35;1.40;;;22.70;65.20;;;;;;4966197;28;20041;-58
2022/08/19 08:14:49;;;;;;;2.47;1.30;;;22.70;65.20;;;;;;4965460;28;20039;-58
2022/08/19 08:17:15;;;;;;;2.60;1.50;;;22.70;65.20;;;;;;4961540;28;20054;-58
2022/08/19 08:19:41;;;;;;;2.92;1.40;;;22.70;65.20;;;;;;4965983;28;20527;-58
2022/08/19 08:22:07;;;;;;;3.35;1.30;;;22.70;65.40;;;;;;4966440;28;20050;-58
2022/08/19 08:24:33;;;;;;;3.17;1.60;;;22.70;65.30;;;;;;4966305;28;22332;-59
2022/08/19 08:26:59;;;;;;;4.70;1.52;;;22.70;66.30;;;;;;4963574;28;20064;-58
2022/08/19 08:29:29;;;;;;;3.80;1.40;;;22.80;65.40;;;;;;4966405;28;20023;-58
2022/08/19 08:31:54;;;;;;;3.50;1.40;;;22.80;65.30;;;;;;4968554;28;20699;-58
2022/08/19 08:34:20;;;;;;;3.10;1.30;;;22.80;65.40;;;;;;4965513;28;20034;-57
2022/08/19 08:36:46;;;;;;;2.95;1.30;;;22.80;65.50;;;;;;4965835;28;20066;-58
2022/08/19 08:39:13;;;;;;;2.83;1.25;;;22.80;65.60;;;;;;4965896;28;20112;-58
2022/08/19 08:42:19;;;;;;;3.25;1.27;;;22.80;65.50;;;;;;4965185;28;20027;-58
2022/08/19 08:45:02;;;;;;;2.72;1.42;;;22.80;65.60;;;;;;4973760;28;20035;-59
2022/08/19 08:47:31;;;;;;;11.82;1.52;;;22.80;65.30;;;;;;4975499;28;20030;-58
2022/08/19 08:50:03;;;;;;;4.22;1.40;;;22.80;65.80;;;;;;4980152;28;20582;-58
2022/08/19 08:52:41;;;;;;;5.75;1.60;;;22.80;65.60;;;;;;4976030;28;20023;-58
2022/08/19 08:55:11;;;;;;;4.78;1.42;;;22.80;65.80;;;;;;4960779;28;20026;-60
2022/08/19 08:57:39;;;;;;;3.20;1.42;;;22.80;65.80;;;;;;4970953;28;20051;-58
2022/08/19 09:00:08;;;;;;;4.18;1.50;;;22.90;65.80;;;;;;4966474;28;20027;-58
2022/08/19 09:02:33;;;;;;;4.30;1.60;;;22.90;66.00;;;;;;4974284;28;20069;-58
2022/08/19 09:04:59;;;;;;;3.25;1.38;;;22.90;65.50;;;;;;4977422;28;20763;-58
2022/08/19 09:07:57;;;;;;;5.47;1.48;;;22.90;65.80;;;;;;4968650;28;20035;-58
2022/08/19 09:10:59;;;;;;;2.83;1.30;;;22.90;65.90;;;;;;4971524;28;20029;-58
2022/08/19 09:14:00;;;;;;;2.47;1.30;;;22.90;66.00;;;;;;4970357;28;20050;-59
2022/08/19 09:16:27;;;;;;;3.30;1.40;;;22.90;66.00;;;;;;4969383;28;20047;-58
2022/08/19 09:18:57;;;;;;;3.85;1.27;;;22.90;65.90;;;;;;4938336;28;20476;-58
2022/08/19 09:21:23;;;;;;;4.25;1.20;;;23.00;66.10;;;;;;4969390;28;20114;-58
2022/08/19 09:23:49;;;;;;;2.80;1.20;;;22.90;66.00;;;;;;4969171;28;20618;-58
2022/08/19 09:26:19;;;;;;;3.92;1.35;;;23.00;66.20;;;;;;4967327;28;20475;-58
2022/08/19 09:28:46;;;;;;;3.97;1.55;;;23.00;66.10;;;;;;4979720;28;20096;-59
2022/08/19 09:31:12;;;;;;;3.80;1.40;;;22.90;66.20;;;;;;4969737;28;20109;-58
2022/08/19 09:33:40;;;;;;;5.45;1.35;;;22.90;66.30;;;;;;4973324;28;20038;-58
2022/08/19 09:36:07;;;;;;;4.85;1.50;;;22.90;66.40;;;;;;4971748;28;20034;-58
2022/08/19 09:38:34;;;;;;;4.03;1.20;;;23.00;65.50;;;;;;4968011;28;20065;-58
2022/08/19 09:41:06;;;;;;;7.53;1.58;;;22.90;66.10;;;;;;4949140;28;20037;-58
2022/08/19 09:43:33;;;;;;;4.65;1.48;;;22.90;66.50;;;;;;4971061;28;20407;-57
2022/08/19 09:46:00;;;;;;;4.05;1.10;;;23.00;66.50;;;;;;4970937;28;20419;-58
2022/08/19 09:48:26;;;;;;;3.22;1.15;;;23.00;66.20;;;;;;4971378;28;20071;-58
2022/08/19 09:50:53;;;;;;;5.25;1.55;;;22.90;66.10;;;;;;4970115;28;20724;-58
2022/08/19 09:53:22;;;;;;;4.47;1.20;;;23.00;66.50;;;;;;4974784;28;20030;-58
2022/08/19 09:55:48;;;;;;;7.00;1.50;;;22.90;66.50;;;;;;4971750;28;20046;-58
2022/08/19 09:58:13;;;;;;;4.32;1.35;;;23.00;66.40;;;;;;4973926;28;20034;-58
2022/08/19 10:00:39;;;;;;;6.90;1.58;;;23.00;66.40;;;;;;4976484;28;20034;-58
2022/08/19 10:03:05;;;;;;;5.60;1.30;;;23.00;66.40;;;;;;4975669;28;20042;-58
2022/08/19 10:05:49;;;;;;;5.63;1.50;;;23.00;66.40;;;;;;4973078;28;20027;-58
2022/08/19 10:08:25;;;;;;;6.80;1.80;;;23.10;66.50;;;;;;4974475;28;20058;-58
2022/08/19 10:10:52;;;;;;;12.68;2.20;;;23.10;67.00;;;;;;4974194;28;20035;-58
2022/08/19 10:13:24;;;;;;;10.18;2.20;;;23.10;67.70;;;;;;4975564;28;20397;-58
2022/08/19 10:19:12;;;;;;;8.73;2.03;;;23.20;67.90;;;;;;4967364;28;20046;-58
2022/08/19 10:21:39;;;;;;;8.93;1.90;;;23.20;67.90;;;;;;4970875;28;20030;-58
2022/08/19 10:24:06;;;;;;;8.30;2.15;;;23.20;68.10;;;;;;4967386;28;20465;-58
2022/08/19 10:26:36;;;;;;;7.85;2.08;;;23.20;68.10;;;;;;4967693;28;20565;-58
2022/08/19 10:29:04;;;;;;;7.53;1.88;;;23.20;67.90;;;;;;4972080;28;20034;-59
2022/08/19 10:31:31;;;;;;;10.48;2.05;;;23.20;67.90;;;;;;4980053;28;20069;-58
2022/08/19 10:33:57;;;;;;;11.55;2.40;;;23.20;67.90;;;;;;4974607;28;20031;-59
2022/08/19 10:36:25;;;;;;;6.72;1.73;;;23.20;67.90;;;;;;4972170;28;20114;-58
2022/08/19 10:38:53;;;;;;;8.95;2.05;;;23.20;68.00;;;;;;4971347;28;20055;-58
2022/08/19 10:41:22;;;;;;;7.85;1.85;;;23.20;67.90;;;;;;4976070;28;20053;-58
2022/08/19 10:43:47;;;;;;;10.95;2.05;;;23.20;67.70;;;;;;4977931;28;20475;-58
2022/08/19 10:46:14;;;;;;;11.60;2.10;;;23.20;67.80;;;;;;4974435;28;20072;-58
2022/08/19 10:48:41;;;;;;;9.52;2.10;;;23.20;67.70;;;;;;4972355;28;20054;-58
2022/08/19 10:53:51;;;;;;;9.38;1.92;;;23.20;67.60;;;;;;4967941;28;20538;-58
2022/08/19 10:59:03;;;;;;;;;;;23.30;67.70;;;;;;4975118;28;20054;-58
2022/08/19 11:01:30;;;;;;;12.55;2.03;;;23.20;67.60;;;;;;4978920;28;19960;-59
2022/08/19 11:03:57;;;;;;;12.57;2.13;;;23.30;67.60;;;;;;4975331;28;20030;-59
2022/08/19 11:06:23;;;;;;;8.25;1.98;;;23.30;67.50;;;;;;4978185;28;20097;-58
2022/08/19 11:08:48;;;;;;;8.65;1.75;;;23.30;67.60;;;;;;4979473;28;20490;-58
2022/08/19 11:11:14;;;;;;;10.45;2.28;;;23.30;67.60;;;;;;4977639;28;20023;-58
2022/08/19 11:13:40;;;;;;;9.48;2.00;;;23.30;67.50;;;;;;4978652;28;20026;-59
2022/08/19 11:16:13;;;;;;;11.20;2.20;;;23.30;67.40;;;;;;4972874;28;20031;-58
2022/08/19 11:18:44;;;;;;;7.05;1.80;;;23.30;67.40;;;;;;4973582;28;20026;-58
2022/08/19 11:21:11;;;;;;;11.02;2.25;;;23.30;67.20;;;;;;4954173;28;20400;-58
2022/08/19 11:23:36;;;;;;;7.68;1.80;;;23.40;67.30;;;;;;4983956;28;20049;-58
2022/08/19 11:26:02;;;;;;;7.72;1.80;;;23.30;67.20;;;;;;4980875;28;20046;-57
2022/08/19 11:28:28;;;;;;;10.65;2.00;;;23.30;67.20;;;;;;4958574;28;20038;-59
2022/08/19 11:30:54;;;;;;;7.50;1.88;;;23.30;67.10;;;;;;4978975;28;20026;-58
2022/08/19 11:33:20;;;;;;;9.18;1.77;;;23.30;67.00;;;;;;4976270;28;20027;-58
2022/08/19 11:35:46;;;;;;;8.40;2.00;;;23.30;66.90;;;;;;4971158;28;20042;-58
2022/08/19 11:38:12;;;;;;;9.23;1.77;;;23.40;66.80;;;;;;4972138;28;20035;-58
2022/08/19 11:40:37;;;;;;;10.45;2.00;;;23.30;66.20;;;;;;4969083;28;20081;-58
2022/08/19 11:43:04;;;;;;;11.68;2.08;;;23.30;66.00;;;;;;4973075;28;20038;-58
2022/08/19 11:45:30;;;;;;;12.27;2.50;;;23.30;67.30;;;;;;4993691;28;20474;-58
2022/08/19 11:47:55;;;;;;;14.13;2.60;;;23.30;65.70;;;;;;4969768;28;20070;-59
2022/08/19 11:50:23;;;;;;;11.82;2.20;;;23.30;64.90;;;;;;4971058;28;20072;-58
2022/08/19 11:52:49;;;;;;;17.33;2.78;;;23.20;65.10;;;;;;4955543;28;20034;-56
2022/08/19 11:55:15;;;;;;;22.63;2.92;;;23.20;66.40;;;;;;4973071;28;20030;-58
2022/08/19 11:57:41;;;;;;;14.30;2.33;;;23.20;65.30;;;;;;4971254;28;20031;-60
2022/08/19 12:00:07;;;;;;;17.60;3.08;;;23.20;64.90;;;;;;4974247;28;20034;-60
2022/08/19 12:02:33;;;;;;;15.07;2.80;;;23.20;65.00;;;;;;4968989;28;20441;-60
2022/08/19 12:05:02;;;;;;;17.42;2.85;;;23.30;64.90;;;;;;4971953;28;20702;-60
2022/08/19 12:07:30;;;;;;;14.25;2.80;;;23.30;65.00;;;;;;4969601;28;20107;-60
2022/08/19 12:09:56;;;;;;;16.45;3.45;;;23.30;64.70;;;;;;4972266;28;20438;-60
2022/08/19 12:12:24;;;;;;;15.15;2.72;;;23.30;64.50;;;;;;4975170;28;20018;-60
2022/08/19 12:14:56;;;;;;;12.57;2.47;;;23.40;64.90;;;;;;4968504;28;20114;-60
2022/08/19 12:17:23;;;;;;;14.35;2.40;;;23.50;64.20;;;;;;4970937;28;20075;-60
2022/08/19 12:19:48;;;;;;;15.52;2.83;;;23.50;64.50;;;;;;4973398;28;20399;-60
2022/08/19 12:22:14;;;;;;;16.60;3.22;;;23.50;63.20;;;;;;4977353;28;20053;-60
2022/08/19 12:24:40;;;;;;;14.55;2.30;;;23.50;64.10;;;;;;4975418;28;20439;-61
2022/08/19 12:27:06;;;;;;;12.88;2.65;;;23.60;63.40;;;;;;4971224;28;20031;-60
2022/08/19 12:29:33;;;;;;;11.30;2.38;;;23.60;62.30;;;;;;4972240;28;20550;-60
2022/08/19 12:32:02;;;;;;;17.40;3.00;;;23.60;62.00;;;;;;4970485;28;20063;-60
2022/08/19 12:34:31;;;;;;;16.33;3.17;;;23.60;61.80;;;;;;4969771;28;20523;-60
2022/08/19 12:36:58;;;;;;;20.63;3.35;;;23.60;60.40;;;;;;4971393;28;20063;-60
2022/08/19 12:39:24;;;;;;;36.67;5.10;;;23.60;60.50;;;;;;4972209;28;20026;-60
2022/08/19 12:41:51;;;;;;;25.52;4.00;;;23.60;59.50;;;;;;4954039;28;20031;-60
2022/08/19 12:44:17;;;;;;;19.60;3.75;;;23.60;59.20;;;;;;4968184;28;20041;-61
2022/08/19 12:46:44;;;;;;;22.48;4.10;;;23.60;60.00;;;;;;4971367;28;20372;-61
2022/08/19 12:49:10;;;;;;;20.83;3.47;;;23.60;59.60;;;;;;4972813;28;20061;-60
2022/08/19 12:51:36;;;;;;;19.55;3.53;;;23.70;59.20;;;;;;4972279;28;20031;-60
2022/08/19 12:54:03;;;;;;;18.83;2.90;;;23.60;58.50;;;;;;4972024;28;20097;-60
2022/08/19 12:56:29;;;;;;;16.05;2.92;;;23.70;59.10;;;;;;4976809;28;20656;-60
2022/08/19 12:58:55;;;;;;;16.52;2.95;;;23.70;58.00;;;;;;4971243;28;20029;-60
2022/08/19 13:01:21;;;;;;;18.65;3.15;;;23.70;57.30;;;;;;4969368;28;20108;-61
2022/08/19 13:03:47;;;;;;;15.00;2.90;;;23.70;57.30;;;;;;4968425;28;20483;-60
2022/08/19 13:06:13;;;;;;;19.20;2.95;;;23.80;57.90;;;;;;4973081;28;20073;-58
2022/08/19 13:08:39;;;;;;;15.15;2.95;;;23.80;57.00;;;;;;4972527;28;20085;-58